Hillview, IL (62050)

3:10 AM CST on February 01, 2015 (GMT -0600)
APRSWXNET Winchester IL US | Change Station
CLOSE
Current Station
Personal Weather Station
Location: Winchester, IL
Elevation: 547 ft
Nearby Weather Stations

Elev 547 ft 39.63 °N, 90.45 °W | Updated 35 minutes ago

Snow
Snow
33 °F
Feels Like 28 °F
N
5
Wind Variable Wind from SSE
Gusts 7.0 mph

Today
High -- | Low -- °F
--% Chance of Precip.
Yesterday
High -- | Low -- °F
Precip. -- in
7:09 AM 5:22 PM
Waxing Gibbous, 94% visible
Pressure 29.91 in
Visibility 1.5 miles
Clouds Overcast 200 ft
Windchill 28 °F
Dew Point 29 °F
Humidity 84%
Rainfall 0.21 in
Snow Depth Not available.
UV 0 out of 12
Pollen .10 out of 12
Air Quality Not available.
Flu Activity Not available.
METAR KPPQ 010855Z AUTO 11007KT 1 1/2SM -SN OVC002 01/00 A2991 RMK AO2 P0005 60007 T00080001

More Conditions Fewer Conditions

Pressure 29.91 in
Visibility 1.5 miles
Clouds Overcast 200 ft
Windchill 28 °F
Dew Point 29 °F
Humidity 84%
Rainfall 0.21 in
Snow Depth Not available.
UV 0 out of 12
Pollen .10 out of 12
Air Quality Not available.
Flu Activity Not available.
METAR KPPQ 010855Z AUTO 11007KT 1 1/2SM -SN OVC002 01/00 A2991 RMK AO2 P0005 60007 T00080001

More Conditions Fewer Conditions

10-Day Weather Forecast

Almanac

Astronomy

Feb. 01, 2015 Rise Set
Actual Time
Civil Twilight
Nautical Twilight
Astronomical Twilight
Moon
Length of Visible Light
Length of Day
Tomorrow will be .
, % of the Moon is Illuminated

Today's Extremes

State Highs State Lows

Community

WunderPhotos

Upload Photos

1,792,338 photos uploaded!

WunderBlogs® & News

Nearby

Air Quality

  Air Quality AQ Index Pollutant
Not available.

Snow Depth

Station Depth Elevation

Earthquake Activity

City Distance Mag. Time & Date
Minimum magnitude displayed is 2.5.

Coastal Water Temperatures

Place Temperature

Nearby Weather Stations